createdAt,value
2022-10-25T00:01:44.161Z,80.50
2022-10-25T00:04:11.356Z,80.40
2022-10-25T00:06:38.401Z,80.50
2022-10-25T00:09:05.564Z,80.40
2022-10-25T00:11:33.203Z,80.40
2022-10-25T00:14:02.544Z,80.30
2022-10-25T00:16:36.800Z,80.30
2022-10-25T00:19:05.119Z,80.30
2022-10-25T00:21:32.133Z,80.40
2022-10-25T00:23:59.203Z,80.30
2022-10-25T00:26:26.149Z,80.20
2022-10-25T00:28:56.372Z,80.20
2022-10-25T00:31:24.041Z,80.10
2022-10-25T00:33:51.367Z,80.10
2022-10-25T00:36:20.689Z,80.00
2022-10-25T00:38:47.870Z,80.00
2022-10-25T00:41:18.223Z,80.00
2022-10-25T00:43:52.068Z,80.10
2022-10-25T00:46:28.361Z,80.10
2022-10-25T00:48:57.551Z,80.00
2022-10-25T00:51:30.318Z,80.10
2022-10-25T00:53:57.296Z,80.10
2022-10-25T00:56:28.422Z,80.00
2022-10-25T00:58:59.175Z,80.00
2022-10-25T01:01:26.777Z,80.00
2022-10-25T01:03:56.592Z,79.90
2022-10-25T01:06:38.436Z,79.80
2022-10-25T01:09:06.990Z,79.80
2022-10-25T01:11:36.057Z,79.90
2022-10-25T01:14:03.451Z,79.80
2022-10-25T01:16:51.685Z,79.80
2022-10-25T01:19:40.698Z,79.90
2022-10-25T01:22:20.486Z,79.90
2022-10-25T01:25:02.294Z,79.90
2022-10-25T01:28:01.322Z,80.00
2022-10-25T01:31:12.139Z,79.90
2022-10-25T01:33:54.205Z,79.90
2022-10-25T01:36:47.616Z,80.30
2022-10-25T01:39:29.539Z,80.60
2022-10-25T01:42:19.991Z,80.50
2022-10-25T01:45:02.301Z,80.30
2022-10-25T01:47:41.688Z,80.20
2022-10-25T01:50:16.170Z,80.20
2022-10-25T01:52:43.053Z,80.30
2022-10-25T01:55:13.379Z,80.40
2022-10-25T01:58:06.256Z,80.40
2022-10-25T02:00:48.631Z,80.40
2022-10-25T02:03:39.940Z,80.50
2022-10-25T02:06:29.803Z,80.40
2022-10-25T02:09:05.341Z,80.50
2022-10-25T02:11:34.121Z,80.50
2022-10-25T02:14:12.847Z,80.80
2022-10-25T02:16:59.136Z,80.70
2022-10-25T02:19:39.927Z,80.80
2022-10-25T02:22:09.302Z,80.80
2022-10-25T02:24:38.600Z,80.90
2022-10-25T02:27:08.239Z,81.00
2022-10-25T02:29:36.378Z,81.00
2022-10-25T02:32:05.491Z,81.00
2022-10-25T02:34:33.005Z,81.00
2022-10-25T02:37:00.905Z,80.90
2022-10-25T02:39:31.396Z,80.80
2022-10-25T02:42:02.187Z,80.90
2022-10-25T02:44:29.451Z,80.80
2022-10-25T02:46:56.237Z,80.70
2022-10-25T02:49:23.137Z,80.70
2022-10-25T02:51:53.041Z,80.80
2022-10-25T02:54:20.073Z,80.90
2022-10-25T02:56:46.842Z,80.70
2022-10-25T02:59:13.771Z,80.60
2022-10-25T03:01:40.495Z,80.40
2022-10-25T03:04:07.310Z,80.70
2022-10-25T03:06:34.128Z,80.60
2022-10-25T03:09:01.924Z,80.80
2022-10-25T03:11:28.923Z,81.10
2022-10-25T03:13:55.966Z,81.20
2022-10-25T03:16:22.778Z,81.20
2022-10-25T03:18:49.881Z,81.20
2022-10-25T03:21:16.616Z,81.00
2022-10-25T03:23:43.381Z,80.90
2022-10-25T03:26:10.121Z,81.10
2022-10-25T03:28:36.873Z,81.10
2022-10-25T03:31:10.442Z,81.20
2022-10-25T03:33:37.373Z,81.20
2022-10-25T03:36:05.319Z,81.00
2022-10-25T03:38:32.289Z,80.70
2022-10-25T03:40:59.348Z,80.80
2022-10-25T03:43:26.560Z,80.90
2022-10-25T03:45:53.404Z,80.90
2022-10-25T03:48:20.231Z,81.10
2022-10-25T03:50:47.122Z,81.10
2022-10-25T03:53:13.922Z,81.30
2022-10-25T03:55:40.714Z,81.50
2022-10-25T03:58:07.473Z,81.70
2022-10-25T04:00:34.250Z,81.80
2022-10-25T04:03:02.635Z,81.80
2022-10-25T04:05:30.414Z,81.90
2022-10-25T04:07:57.666Z,81.80
2022-10-25T04:10:25.356Z,81.50
2022-10-25T04:12:53.868Z,81.40
2022-10-25T04:15:21.764Z,81.60
2022-10-25T04:17:50.337Z,81.80
2022-10-25T04:20:17.435Z,81.80
2022-10-25T04:22:45.563Z,81.80
2022-10-25T04:25:12.335Z,81.90
2022-10-25T04:27:39.328Z,82.00
2022-10-25T04:30:06.555Z,81.90
2022-10-25T04:32:33.280Z,82.00
2022-10-25T04:35:00.112Z,82.10
2022-10-25T04:37:26.919Z,82.00
2022-10-25T04:39:53.647Z,82.20
2022-10-25T04:42:20.399Z,82.30
2022-10-25T04:44:47.184Z,82.20
2022-10-25T04:47:14.005Z,82.10
2022-10-25T04:49:40.774Z,82.30
2022-10-25T04:52:07.532Z,82.40
2022-10-25T04:54:34.247Z,82.60
2022-10-25T04:57:01.110Z,82.70
2022-10-25T04:59:27.878Z,82.70
2022-10-25T05:01:54.725Z,82.60
2022-10-25T05:04:21.537Z,82.60
2022-10-25T05:06:48.258Z,82.70
2022-10-25T05:09:15.201Z,82.80
2022-10-25T05:11:41.940Z,82.80
2022-10-25T05:14:08.690Z,82.70
2022-10-25T05:16:35.573Z,82.60
2022-10-25T05:19:02.599Z,82.60
2022-10-25T05:21:30.291Z,82.40
2022-10-25T05:24:02.057Z,82.30
2022-10-25T05:26:30.348Z,82.20
2022-10-25T05:28:57.277Z,82.10
2022-10-25T05:31:29.547Z,82.00
2022-10-25T05:33:58.610Z,81.90
2022-10-25T05:36:25.822Z,81.70
2022-10-25T05:38:52.890Z,81.60
2022-10-25T05:41:19.816Z,81.50
2022-10-25T05:43:47.399Z,81.40
2022-10-25T05:46:22.510Z,81.20
2022-10-25T05:48:50.941Z,81.20
2022-10-25T05:51:33.829Z,81.00
2022-10-25T05:54:05.699Z,81.00
2022-10-25T05:56:33.752Z,80.80
2022-10-25T05:59:09.354Z,80.60
2022-10-25T06:01:38.841Z,80.60
2022-10-25T06:04:06.452Z,80.60
2022-10-25T06:06:33.598Z,80.70
2022-10-25T06:09:01.274Z,81.00
2022-10-25T06:11:29.658Z,81.10
2022-10-25T06:13:56.961Z,81.10
2022-10-25T06:16:24.273Z,81.00
2022-10-25T06:18:52.319Z,81.00
2022-10-25T06:21:22.131Z,81.10
2022-10-25T06:23:49.231Z,81.20
2022-10-25T06:26:19.862Z,81.40
2022-10-25T06:28:46.638Z,81.40
2022-10-25T06:31:18.324Z,81.40
2022-10-25T06:33:45.568Z,81.40
2022-10-25T06:36:20.930Z,81.70
2022-10-25T06:38:49.352Z,81.60
2022-10-25T06:41:21.293Z,81.40
2022-10-25T06:43:49.263Z,81.40
2022-10-25T06:46:28.075Z,81.40
2022-10-25T06:48:57.382Z,81.40
2022-10-25T06:51:26.037Z,81.40
2022-10-25T06:54:00.572Z,81.60
2022-10-25T06:56:28.809Z,81.70
2022-10-25T06:58:56.035Z,81.80
2022-10-25T07:01:24.358Z,81.60
2022-10-25T07:03:53.699Z,81.60
2022-10-25T07:06:27.586Z,81.50
2022-10-25T07:08:57.097Z,81.40
2022-10-25T07:11:25.586Z,81.50
2022-10-25T07:13:52.529Z,81.60
2022-10-25T07:16:20.815Z,81.60
2022-10-25T07:18:48.326Z,81.60
2022-10-25T07:21:20.473Z,81.40
2022-10-25T07:23:48.609Z,81.50
2022-10-25T07:26:22.834Z,81.50
2022-10-25T07:28:51.304Z,81.50
2022-10-25T07:31:21.407Z,81.40
2022-10-25T07:33:49.705Z,81.20
2022-10-25T07:36:16.868Z,81.00
2022-10-25T07:38:43.673Z,80.70
2022-10-25T07:41:10.964Z,80.70
2022-10-25T07:43:38.061Z,80.70
2022-10-25T07:46:06.528Z,80.60
2022-10-25T07:48:34.400Z,80.70
2022-10-25T07:51:11.008Z,80.60
2022-10-25T07:53:38.385Z,80.50
2022-10-25T07:56:05.818Z,80.40
2022-10-25T07:58:32.669Z,80.40
2022-10-25T08:01:08.295Z,80.50
2022-10-25T08:03:35.275Z,80.40
2022-10-25T08:06:02.640Z,80.40
2022-10-25T08:08:30.186Z,80.30
2022-10-25T08:10:57.700Z,80.40
2022-10-25T08:13:24.502Z,79.90
2022-10-25T08:15:55.612Z,80.10
2022-10-25T08:18:23.704Z,80.00
2022-10-25T08:21:02.171Z,79.60
2022-10-25T08:23:31.594Z,79.50
2022-10-25T08:25:59.068Z,79.10
2022-10-25T08:28:26.138Z,78.70
2022-10-25T08:30:54.548Z,78.50
2022-10-25T08:33:21.372Z,78.60
2022-10-25T08:35:48.065Z,79.10
2022-10-25T08:38:14.930Z,79.10
2022-10-25T08:41:03.519Z,78.40
2022-10-25T08:43:46.040Z,78.10
2022-10-25T08:46:20.178Z,78.00
2022-10-25T08:48:52.937Z,78.20
2022-10-25T08:51:28.965Z,78.10
2022-10-25T08:54:00.224Z,78.10
2022-10-25T08:56:28.315Z,78.00
2022-10-25T08:58:58.168Z,77.70
2022-10-25T09:01:44.904Z,77.40
2022-10-25T09:04:11.805Z,77.70
2022-10-25T09:06:41.661Z,76.70
2022-10-25T09:09:51.879Z,75.50
2022-10-25T09:12:33.617Z,75.50
2022-10-25T09:15:27.450Z,75.80
2022-10-25T09:17:54.739Z,75.20
2022-10-25T09:20:30.818Z,76.50
2022-10-25T09:23:05.390Z,76.60
2022-10-25T09:25:56.394Z,75.90
2022-10-25T09:28:45.766Z,77.80
2022-10-25T09:31:24.752Z,77.70
2022-10-25T09:34:04.219Z,77.10
2022-10-25T09:36:44.292Z,73.30
2022-10-25T09:39:19.102Z,73.50
2022-10-25T09:41:50.025Z,70.40
2022-10-25T09:44:44.943Z,69.20
2022-10-25T09:47:21.013Z,67.20
2022-10-25T09:50:06.657Z,65.60
2022-10-25T09:52:45.650Z,65.70
2022-10-25T09:55:24.240Z,64.80
2022-10-25T09:57:51.116Z,64.10
2022-10-25T10:00:18.041Z,63.90
2022-10-25T10:02:45.074Z,63.80
2022-10-25T10:05:17.079Z,62.90
2022-10-25T10:07:49.360Z,63.40
2022-10-25T10:10:20.817Z,62.40
2022-10-25T10:13:01.965Z,62.40
2022-10-25T10:15:47.307Z,62.50
2022-10-25T10:18:22.562Z,62.10
2022-10-25T10:21:06.144Z,63.60
2022-10-25T10:23:43.912Z,61.70
2022-10-25T10:26:15.013Z,61.30
2022-10-25T10:28:49.862Z,61.60
2022-10-25T10:31:18.442Z,61.90
2022-10-25T10:33:50.696Z,61.50
2022-10-25T10:36:26.541Z,61.60
2022-10-25T10:38:54.127Z,62.90
2022-10-25T10:41:28.691Z,65.00
2022-10-25T10:44:14.079Z,65.90
2022-10-25T10:46:46.257Z,66.90
2022-10-25T10:49:14.817Z,67.00
2022-10-25T10:51:45.195Z,63.70
2022-10-25T10:54:34.541Z,62.10
2022-10-25T10:57:06.563Z,62.00
2022-10-25T10:59:51.471Z,59.40
2022-10-25T11:02:37.174Z,58.50
2022-10-25T11:05:28.253Z,56.70
2022-10-25T11:08:02.570Z,58.90
2022-10-25T11:10:31.888Z,59.90
2022-10-25T11:13:19.412Z,59.40
2022-10-25T11:16:07.909Z,57.50
2022-10-25T11:19:10.045Z,56.20
2022-10-25T11:22:02.927Z,55.70
2022-10-25T11:25:04.081Z,54.10
2022-10-25T11:27:36.635Z,53.40
2022-10-25T11:30:16.366Z,52.60
2022-10-25T11:33:05.753Z,50.30
2022-10-25T11:36:02.401Z,50.00
2022-10-25T11:38:50.189Z,49.50
2022-10-25T11:41:35.593Z,48.60
2022-10-25T11:44:22.676Z,49.90
2022-10-25T11:46:56.449Z,51.20
2022-10-25T11:49:57.134Z,52.70
2022-10-25T11:52:26.920Z,54.30
2022-10-25T11:55:19.226Z,55.70
2022-10-25T11:58:07.215Z,54.80
2022-10-25T12:00:50.015Z,53.10
2022-10-25T12:03:35.561Z,53.00
2022-10-25T12:06:12.502Z,54.50
2022-10-25T12:08:51.244Z,56.10
2022-10-25T12:11:26.887Z,56.00
2022-10-25T12:13:58.433Z,55.50
2022-10-25T12:16:27.031Z,55.70
2022-10-25T12:19:05.925Z,53.90
2022-10-25T12:21:45.287Z,51.70
2022-10-25T12:24:20.411Z,51.60
2022-10-25T12:26:50.079Z,53.10
2022-10-25T12:29:36.012Z,54.40
2022-10-25T12:32:10.539Z,55.50
2022-10-25T12:34:44.679Z,55.30
2022-10-25T12:37:38.639Z,54.80
2022-10-25T12:40:07.668Z,55.50
2022-10-25T12:42:44.619Z,55.10
2022-10-25T12:45:39.658Z,54.20
2022-10-25T12:48:59.541Z,53.00
2022-10-25T12:51:52.251Z,51.40
2022-10-25T12:54:31.549Z,52.00
2022-10-25T12:57:01.290Z,51.90
2022-10-25T12:59:47.901Z,51.20
2022-10-25T13:02:42.133Z,51.70
2022-10-25T13:05:45.056Z,52.80
2022-10-25T13:08:13.026Z,52.70
2022-10-25T13:13:47.983Z,51.70
2022-10-25T13:16:27.677Z,51.20
2022-10-25T13:19:42.703Z,52.50
2022-10-25T13:22:34.135Z,52.90
2022-10-25T13:25:30.437Z,53.60
2022-10-25T13:28:31.600Z,54.40
2022-10-25T13:31:33.131Z,55.30
2022-10-25T13:34:14.967Z,56.30
2022-10-25T13:36:51.656Z,58.20
2022-10-25T13:39:43.865Z,57.60
2022-10-25T13:42:16.823Z,57.10
2022-10-25T13:45:02.937Z,55.80
2022-10-25T13:47:49.208Z,53.00
2022-10-25T13:50:35.469Z,52.70
2022-10-25T13:53:21.256Z,53.90
2022-10-25T13:56:07.410Z,54.30
2022-10-25T13:58:40.083Z,53.90
2022-10-25T14:01:15.863Z,54.10
2022-10-25T14:03:49.976Z,54.70
2022-10-25T14:06:46.331Z,55.20
2022-10-25T14:09:24.992Z,56.00
2022-10-25T14:12:09.020Z,56.50
2022-10-25T14:15:13.495Z,57.10
2022-10-25T14:17:45.244Z,59.10
2022-10-25T14:20:20.960Z,58.70
2022-10-25T14:22:54.069Z,57.60
2022-10-25T14:25:41.442Z,56.40
2022-10-25T14:28:23.593Z,53.70
2022-10-25T14:30:56.313Z,54.60
2022-10-25T14:33:25.883Z,52.70
2022-10-25T14:35:58.337Z,51.70
2022-10-25T14:38:27.782Z,51.70
2022-10-25T14:41:03.555Z,51.70
2022-10-25T14:43:38.539Z,51.30
2022-10-25T14:46:12.729Z,51.90
2022-10-25T14:48:40.692Z,52.70
2022-10-25T14:51:19.603Z,53.90
2022-10-25T14:54:07.558Z,54.80
2022-10-25T14:56:38.240Z,55.20
2022-10-25T14:59:07.690Z,54.80
2022-10-25T15:01:51.679Z,54.60
2022-10-25T15:04:30.392Z,54.80
2022-10-25T15:06:57.433Z,55.10
2022-10-25T15:12:14.072Z,56.00
2022-10-25T15:14:42.077Z,56.90
2022-10-25T15:17:30.654Z,58.00
2022-10-25T15:19:59.501Z,58.30
2022-10-25T15:22:50.672Z,58.10
2022-10-25T15:25:19.997Z,58.10
2022-10-25T15:27:46.875Z,57.80
2022-10-25T15:30:47.588Z,57.70
2022-10-25T15:33:19.351Z,58.30
2022-10-25T15:35:55.472Z,58.50
2022-10-25T15:38:37.111Z,59.10
2022-10-25T15:41:12.982Z,59.70
2022-10-25T15:43:39.781Z,60.20
2022-10-25T15:46:14.533Z,60.70
2022-10-25T15:48:42.870Z,61.00
2022-10-25T15:51:11.575Z,61.30
2022-10-25T15:53:38.343Z,61.70
2022-10-25T15:56:05.307Z,61.80
2022-10-25T15:58:32.015Z,62.00
2022-10-25T16:00:58.933Z,62.30
2022-10-25T16:03:25.752Z,62.20
2022-10-25T16:05:52.875Z,62.50
2022-10-25T16:08:19.746Z,62.50
2022-10-25T16:10:46.734Z,62.50
2022-10-25T16:13:18.364Z,62.70
2022-10-25T16:15:45.146Z,62.70
2022-10-25T16:18:13.863Z,62.90
2022-10-25T16:20:43.550Z,63.30
2022-10-25T16:23:11.323Z,63.70
2022-10-25T16:25:38.438Z,64.20
2022-10-25T16:28:05.568Z,64.50
2022-10-25T16:30:37.463Z,64.90
2022-10-25T16:33:06.224Z,65.30
2022-10-25T16:35:32.893Z,65.50
2022-10-25T16:37:59.717Z,65.90
2022-10-25T16:40:28.714Z,66.20
2022-10-25T16:42:57.658Z,66.40
2022-10-25T16:45:28.792Z,66.60
2022-10-25T16:47:57.236Z,66.70
2022-10-25T16:50:25.869Z,66.80
2022-10-25T16:52:54.267Z,66.80
2022-10-25T16:55:21.753Z,66.80
2022-10-25T17:00:20.646Z,66.80
2022-10-25T17:02:47.778Z,66.90
2022-10-25T17:05:26.606Z,66.90
2022-10-25T17:07:53.286Z,67.20
2022-10-25T17:10:21.506Z,67.20
2022-10-25T17:12:53.920Z,67.10
2022-10-25T17:15:21.609Z,67.20
2022-10-25T17:17:48.809Z,67.20
2022-10-25T17:20:17.303Z,67.30
2022-10-25T17:22:44.836Z,67.30
2022-10-25T17:25:12.108Z,67.40
2022-10-25T17:27:41.767Z,67.70
2022-10-25T17:30:10.444Z,67.90
2022-10-25T17:32:37.878Z,68.00
2022-10-25T17:35:05.887Z,67.80
2022-10-25T17:37:33.099Z,67.90
2022-10-25T17:40:00.195Z,67.80
2022-10-25T17:42:28.328Z,67.70
2022-10-25T17:44:55.431Z,67.70
2022-10-25T17:47:22.435Z,67.60
2022-10-25T17:49:49.283Z,67.80
2022-10-25T17:52:16.102Z,68.00
2022-10-25T17:54:56.935Z,68.00
2022-10-25T17:57:23.802Z,68.20
2022-10-25T17:59:50.781Z,68.30
2022-10-25T18:02:17.701Z,68.30
2022-10-25T18:05:01.209Z,68.40
2022-10-25T18:07:35.026Z,68.50
2022-10-25T18:10:02.067Z,68.70
2022-10-25T18:12:32.043Z,69.10
2022-10-25T18:14:58.846Z,69.30
2022-10-25T18:17:25.560Z,69.30
2022-10-25T18:19:52.480Z,69.70
2022-10-25T18:22:21.244Z,69.90
2022-10-25T18:24:48.182Z,69.90
2022-10-25T18:27:15.851Z,70.00
2022-10-25T18:29:43.352Z,70.10
2022-10-25T18:32:10.082Z,70.20
2022-10-25T18:34:36.859Z,70.40
2022-10-25T18:37:03.683Z,70.40
2022-10-25T18:39:30.466Z,70.30
2022-10-25T18:41:58.071Z,70.40
2022-10-25T18:44:24.779Z,70.40
2022-10-25T18:46:53.225Z,70.40
2022-10-25T18:49:19.997Z,70.50
2022-10-25T18:51:46.783Z,70.60
2022-10-25T18:54:13.989Z,70.60
2022-10-25T18:56:40.750Z,70.60
2022-10-25T18:59:10.099Z,70.60
2022-10-25T19:01:37.959Z,70.80
2022-10-25T19:04:05.177Z,70.90
2022-10-25T19:06:32.590Z,70.90
2022-10-25T19:08:59.495Z,70.90
2022-10-25T19:11:26.309Z,71.00
2022-10-25T19:13:54.874Z,71.00
2022-10-25T19:16:22.989Z,71.00
2022-10-25T19:18:50.126Z,71.00
2022-10-25T19:21:18.351Z,71.10
2022-10-25T19:23:46.300Z,71.20
2022-10-25T19:26:18.543Z,71.30
2022-10-25T19:28:45.890Z,71.40
2022-10-25T19:31:17.336Z,71.40
2022-10-25T19:33:49.048Z,71.50
2022-10-25T19:36:17.440Z,71.40
2022-10-25T19:38:50.287Z,71.40
2022-10-25T19:41:19.471Z,71.30
2022-10-25T19:43:46.894Z,71.30
2022-10-25T19:46:14.044Z,71.30
2022-10-25T19:48:41.712Z,71.20
2022-10-25T19:51:14.355Z,71.30
2022-10-25T19:53:41.350Z,71.40
2022-10-25T19:56:09.802Z,71.30
2022-10-25T19:58:37.177Z,71.40
2022-10-25T20:01:12.251Z,71.40
2022-10-25T20:03:40.158Z,71.40
2022-10-25T20:06:09.873Z,71.30
2022-10-25T20:08:38.451Z,71.30
2022-10-25T20:11:06.270Z,71.30
2022-10-25T20:13:33.076Z,71.50
2022-10-25T20:16:00.489Z,71.60
2022-10-25T20:18:31.655Z,71.80
2022-10-25T20:21:01.218Z,71.90
2022-10-25T20:23:28.746Z,71.90
2022-10-25T20:25:55.758Z,72.10
2022-10-25T20:28:22.795Z,72.10
2022-10-25T20:30:50.359Z,72.10
2022-10-25T20:33:17.517Z,72.20
2022-10-25T20:35:45.818Z,72.10
2022-10-25T20:38:13.055Z,72.20
2022-10-25T20:40:41.093Z,72.20
2022-10-25T20:43:08.061Z,72.20
2022-10-25T20:45:34.874Z,72.10
2022-10-25T20:48:01.971Z,72.10
2022-10-25T20:50:29.866Z,72.10
2022-10-25T20:53:09.693Z,72.10
2022-10-25T20:55:37.851Z,72.10
2022-10-25T20:58:04.985Z,72.10
2022-10-25T21:00:32.438Z,72.10
2022-10-25T21:03:00.136Z,72.10
2022-10-25T21:05:27.227Z,72.10
2022-10-25T21:07:54.150Z,72.10
2022-10-25T21:10:20.904Z,72.20
2022-10-25T21:12:47.734Z,72.20
2022-10-25T21:15:14.633Z,72.20
2022-10-25T21:17:41.425Z,72.30
2022-10-25T21:20:08.767Z,72.20
2022-10-25T21:22:35.448Z,72.20
2022-10-25T21:25:02.261Z,72.30
2022-10-25T21:27:28.991Z,72.30
2022-10-25T21:29:55.710Z,72.40
2022-10-25T21:32:22.540Z,72.40
2022-10-25T21:34:49.283Z,72.50
2022-10-25T21:37:16.088Z,72.50
2022-10-25T21:39:43.555Z,72.70
2022-10-25T21:42:10.417Z,72.80
2022-10-25T21:44:37.177Z,72.90
2022-10-25T21:47:03.972Z,73.00
2022-10-25T21:49:31.077Z,73.10
2022-10-25T21:51:57.996Z,73.20
2022-10-25T21:54:25.081Z,73.30
2022-10-25T21:56:52.677Z,73.40
2022-10-25T21:59:20.346Z,73.40
2022-10-25T22:01:47.968Z,73.40
2022-10-25T22:04:16.255Z,73.50
2022-10-25T22:06:42.962Z,73.50
2022-10-25T22:09:09.891Z,73.40
2022-10-25T22:11:38.586Z,73.50
2022-10-25T22:14:08.176Z,73.60
2022-10-25T22:16:35.305Z,73.60
2022-10-25T22:19:04.701Z,73.60
2022-10-25T22:21:37.374Z,73.50
2022-10-25T22:24:05.658Z,73.50
2022-10-25T22:26:32.622Z,73.50
2022-10-25T22:28:59.732Z,73.50
2022-10-25T22:31:28.835Z,73.50
2022-10-25T22:33:58.459Z,73.50
2022-10-25T22:36:30.488Z,73.50
2022-10-25T22:38:57.806Z,73.60
2022-10-25T22:41:26.615Z,73.70
2022-10-25T22:43:53.998Z,73.70
2022-10-25T22:46:24.979Z,73.80
2022-10-25T22:48:56.975Z,74.00
2022-10-25T22:51:25.756Z,74.30
2022-10-25T22:53:52.567Z,74.40
2022-10-25T22:56:24.666Z,74.50
2022-10-25T22:58:54.489Z,74.50
2022-10-25T23:01:26.981Z,74.50
2022-10-25T23:03:55.738Z,74.50
2022-10-25T23:06:26.891Z,74.50
2022-10-25T23:08:55.701Z,74.60
2022-10-25T23:11:24.879Z,74.80
2022-10-25T23:13:51.937Z,74.80
2022-10-25T23:16:18.831Z,74.80
2022-10-25T23:18:45.998Z,74.90
2022-10-25T23:21:18.347Z,75.00
2022-10-25T23:23:46.580Z,75.10
2022-10-25T23:26:20.739Z,75.10
2022-10-25T23:28:47.823Z,75.20
2022-10-25T23:31:14.733Z,75.20
2022-10-25T23:33:42.079Z,75.40
2022-10-25T23:36:15.857Z,75.40
2022-10-25T23:38:44.042Z,75.50
2022-10-25T23:41:10.853Z,75.60
2022-10-25T23:43:38.088Z,75.70
2022-10-25T23:46:05.857Z,75.70
2022-10-25T23:48:32.866Z,75.70
2022-10-25T23:51:02.508Z,75.70
2022-10-25T23:53:29.603Z,75.80
2022-10-25T23:55:56.596Z,75.80
2022-10-25T23:58:23.885Z,75.80
